Flight Track Log - Related Links

Times and Time Zones

All times are in EDT time to prevent confusion due to time zone crossing. See the KAP927 flight status page for this flight to view local times or setup timezone preferences in your user account.

Time Position Orientation Groundspeed Altitude Reporting Facility
EDT Latitude Longitude Course Direction KTS MPH feet Rate Location/Type
Sat 01:47:56 PM 42.3500 -71.0167 270° West 116 133 700  Level KA90
Sat 01:49:08 PM 42.3500 -71.0500 270° West 106 122 1,800 750 Climbing KA90
Sat 01:50:20 PM 42.3333 -71.1000 246° West 101 116 2,500 619 Climbing KA90
Sat 01:51:14 PM 42.3333 -71.1500 270° West 110 127 3,100 684 Climbing KA90
Sat 01:52:14 PM 42.3333 -71.1833 270° West 114 131 3,800 626 Climbing KA90
Sat 01:53:09 PM 42.3333 -71.2167 270° West 112 129 4,300 694 Climbing KA90
Sat 01:54:15 PM 42.3167 -71.2667 246° West 113 130 5,200 779 Climbing KA90
Sat 01:55:20 PM 42.3167 -71.3167 270° West 112 129 6,000 667 Climbing KA90
Sat 01:56:21 PM 42.3167 -71.3500 270° West 112 129 6,600 684 Climbing KA90
Sat 01:57:14 PM 42.3167 -71.4000 270° West 112 129 7,300 743 Climbing KA90
Sat 01:58:14 PM 42.3000 -71.4333 236° Southwest 110 127 8,000 661 Climbing KA90
Sat 01:59:12 PM 42.3006 -71.4800 271° West 113 130 8,600 617 Climbing Boston Center
Sat 02:00:01 PM 42.2944 -71.5167 257° West 115 132 9,100 655 Climbing Boston Center
Sat 02:01:02 PM 42.2908 -71.5617 264° West 116 133 9,800 492 Climbing Boston Center
Sat 02:02:03 PM 42.2869 -71.6039 263° West 123 142 10,100 141 Climbing Boston Center
Sat 02:03:10 PM 42.2831 -71.6683 265° West 142 163 10,100  Level Boston Center
Sat 02:04:04 PM 42.2772 -71.7161 261° West 146 168 10,100  Level Boston Center
Sat 02:05:05 PM 42.2756 -71.7694 268° West 142 163 10,100  Level Boston Center
Sat 02:06:06 PM 42.2717 -71.8228 264° West 141 162 10,100  Level Boston Center
Sat 02:07:07 PM 42.2739 -71.8733 273° West 138 159 10,100  Level Boston Center
Sat 02:08:07 PM 42.2722 -71.9239 267° West 138 159 10,100  Level Boston Center
Sat 02:09:08 PM 42.2722 -71.9800 270° West 139 160 10,100  Level Boston Center
Sat 02:10:09 PM 42.2747 -72.0275 274° West 133 153 10,100  Level Boston Center
Sat 02:11:10 PM 42.2747 -72.0808 270° West 139 160 10,100  Level Boston Center
Sat 02:12:11 PM 42.2894 -72.1286 293° West 136 157 10,100  Level Boston Center
Sat 02:13:12 PM 42.3042 -72.1761 293° West 133 153 10,100  Level Boston Center
Sat 02:14:13 PM 42.3169 -72.2239 290° West 135 155 10,100  Level Boston Center
Sat 02:15:13 PM 42.3314 -72.2772 290° West 138 159 10,100  Level Boston Center
Sat 02:16:14 PM 42.3442 -72.3250 290° West 139 160 10,100  Level Boston Center
Sat 02:17:15 PM 42.3586 -72.3728 292° West 139 160 10,100  Level Boston Center
Sat 02:18:22 PM 42.3733 -72.4289 290° West 137 158 10,100  Level Boston Center
Sat 02:19:23 PM 42.3858 -72.4739 291° West 133 153 10,100  Level Boston Center
Sat 02:20:24 PM 42.4003 -72.5217 292° West 135 155 10,100  Level Boston Center
Sat 02:21:25 PM 42.4128 -72.5694 290° West 135 155 10,100  Level Boston Center
Sat 02:22:32 PM 42.4272 -72.6258 289° West 136 157 10,100  Level Boston Center
Sat 02:23:32 PM 42.4439 -72.6736 295° West 136 157 10,100  Level Boston Center
Sat 02:24:33 PM 42.4583 -72.7186 294° West 137 158 10,100  Level Boston Center
Sat 02:25:28 PM 42.4686 -72.7639 287° West 138 159 10,100 54 Level Boston Center
Sat 02:26:25 PM 42.4831 -72.8117 292° West 138 159 10,200 47 Climbing Boston Center
Sat 02:27:37 PM 42.4975 -72.8681 289° West 133 153 10,200  Level Boston Center
Sat 02:28:38 PM 42.5119 -72.9189 291° West 145 167 10,200  Level Boston Center
Sat 02:29:39 PM 42.5264 -72.9669 292° West 136 157 10,200  Level Boston Center
Sat 02:30:33 PM 42.5364 -73.0092 288° West 136 157 10,200  Level Boston Center
Sat 02:31:34 PM 42.5489 -73.0600 288° West 139 160 10,200  Level Boston Center
Sat 02:32:35 PM 42.5650 -73.1139 292° West 137 158 10,200  Level Boston Center
Sat 02:33:36 PM 42.5772 -73.1619 289° West 135 155 10,200 -189 Level Boston Center
Sat 02:34:42 PM 42.5917 -73.2156 290° West 139 160 9,800 -331 Descending Boston Center
Sat 02:35:43 PM 42.6036 -73.2667 288° West 146 168 9,500 -295 Descending Boston Center
Sat 02:36:44 PM 42.6219 -73.3203 295° West 150 173 9,200 -443 Descending Boston Center
Sat 02:37:45 PM 42.6361 -73.3769 289° West 158 182 8,600 -595 Descending Boston Center
Sat 02:38:45 PM 42.6503 -73.4367 288° West 168 193 8,000 -694 Descending Boston Center
Sat 02:39:46 PM 42.6664 -73.4961 290° West 168 193 7,200 -828 Descending Boston Center
Sat 02:40:41 PM 42.6847 -73.5472 296° West 160 184 6,400 -835 Descending Boston Center
Sat 02:41:41 PM 42.6947 -73.5983 285° West 144 166 5,600 -843 Descending Boston Center
Sat 02:42:42 PM 42.7044 -73.6494 285° West 145 167 4,700 -885 Descending Boston Center
Sat 02:43:43 PM 42.6978 -73.7028 260° West 145 167 3,800 -1,033 Descending Boston Center
Sat 02:44:44 PM 42.6972 -73.7536 269° West 126 145 2,600 -1,134 Descending Boston Center
Sat 02:45:50 PM 42.7133 -73.7936 299° West 100 115 1,400 -1,091 Descending Boston Center
Sat 02:47:00 PM 42.7333 -73.8000 290° West  Level FlightAware Approximate
Sat 02:54:00 PM 42.7491 -73.8020 290° West  Level Estimated
Sat 02:55:00 PM 42.7491 -73.8020 290° West  Level Estimated
Sat 02:56:00 PM 42.7491 -73.8020 290° West  Level Estimated
Sat 02:57:00 PM 42.7491 -73.8020 290° West  Level Estimated

Login

Don't have an account? Register now (free) for customized features, flight alerts, and more!